createdAt,value
2023-04-26T00:01:23.026Z,70.70
2023-04-26T00:06:27.456Z,72.44
2023-04-26T00:11:32.660Z,72.13
2023-04-26T00:16:36.290Z,73.02
2023-04-26T00:21:39.867Z,73.04
2023-04-26T00:26:46.862Z,73.43
2023-04-26T00:31:50.861Z,74.30
2023-04-26T00:36:54.612Z,73.36
2023-04-26T00:41:59.778Z,73.78
2023-04-26T00:47:03.740Z,74.46
2023-04-26T00:52:07.851Z,73.52
2023-04-26T00:57:14.291Z,73.41
2023-04-26T01:02:18.998Z,74.74
2023-04-26T01:14:31.717Z,73.95
2023-04-26T01:19:52.557Z,74.48
2023-04-26T01:25:01.738Z,75.55
2023-04-26T01:30:05.752Z,75.93
2023-04-26T01:35:10.372Z,76.15
2023-04-26T01:40:16.084Z,77.43
2023-04-26T01:45:19.871Z,77.68
2023-04-26T01:50:24.895Z,77.12
2023-04-26T01:55:29.580Z,77.81
2023-04-26T02:00:34.946Z,78.17
2023-04-26T02:05:38.694Z,78.27
2023-04-26T02:10:43.864Z,79.48
2023-04-26T02:15:48.151Z,79.03
2023-04-26T02:20:51.784Z,79.93
2023-04-26T02:25:56.520Z,80.43
2023-04-26T02:31:03.557Z,80.76
2023-04-26T02:36:09.259Z,81.32
2023-04-26T02:41:14.149Z,81.41
2023-04-26T02:46:17.845Z,81.90
2023-04-26T02:51:22.071Z,82.56
2023-04-26T02:56:27.632Z,83.18
2023-04-26T03:01:31.679Z,83.00
2023-04-26T03:06:36.001Z,83.74
2023-04-26T03:11:41.477Z,84.42
2023-04-26T03:17:01.784Z,84.76
2023-04-26T03:22:06.005Z,84.38
2023-04-26T03:27:22.360Z,85.02
2023-04-26T03:32:27.262Z,85.04
2023-04-26T03:37:30.733Z,85.19
2023-04-26T03:42:35.767Z,85.58
2023-04-26T03:47:57.258Z,85.27
2023-04-26T03:53:00.828Z,85.18
2023-04-26T03:58:08.286Z,85.53
2023-04-26T04:03:12.699Z,85.49
2023-04-26T04:08:17.530Z,85.85
2023-04-26T04:13:22.554Z,86.04
2023-04-26T04:18:26.790Z,85.76
2023-04-26T04:23:32.158Z,85.97
2023-04-26T04:28:38.238Z,86.05
2023-04-26T04:33:42.408Z,85.80
2023-04-26T04:38:46.570Z,85.99
2023-04-26T04:43:51.963Z,85.34
2023-04-26T04:49:09.889Z,85.53
2023-04-26T04:54:14.123Z,84.39
2023-04-26T04:59:19.989Z,84.37
2023-04-26T05:04:25.484Z,84.13
2023-04-26T05:09:29.655Z,84.02
2023-04-26T05:14:34.597Z,83.48
2023-04-26T05:19:39.336Z,83.15
2023-04-26T05:24:44.274Z,75.59
2023-04-26T05:29:53.305Z,70.25
2023-04-26T05:34:57.109Z,68.60
2023-04-26T05:40:04.501Z,66.53
2023-04-26T05:45:11.570Z,63.48
2023-04-26T05:50:20.083Z,59.63
2023-04-26T05:55:23.363Z,57.52
2023-04-26T06:00:35.892Z,53.22
2023-04-26T06:05:39.741Z,49.24
2023-04-26T06:10:43.950Z,45.42
2023-04-26T06:15:49.199Z,40.58
2023-04-26T06:20:57.231Z,37.30
2023-04-26T06:26:01.274Z,35.54
2023-04-26T06:31:17.778Z,32.36
2023-04-26T06:36:23.045Z,32.67
2023-04-26T06:41:38.318Z,31.43
2023-04-26T06:46:43.575Z,30.12
2023-04-26T06:51:47.343Z,29.29
2023-04-26T06:56:50.925Z,27.31
2023-04-26T07:01:56.086Z,27.48
2023-04-26T07:06:59.445Z,26.39
2023-04-26T07:12:02.796Z,26.09
2023-04-26T07:17:09.472Z,27.02
2023-04-26T07:22:13.395Z,26.41
2023-04-26T07:27:17.027Z,26.62
2023-04-26T07:32:22.044Z,28.78
2023-04-26T07:37:25.768Z,28.15
2023-04-26T07:42:29.121Z,27.06
2023-04-26T07:47:34.026Z,28.75
2023-04-26T07:52:37.915Z,28.95
2023-04-26T07:57:41.862Z,27.80
2023-04-26T08:02:47.362Z,27.31
2023-04-26T08:07:52.150Z,28.10
2023-04-26T08:12:57.820Z,28.64
2023-04-26T08:18:05.335Z,29.35
2023-04-26T08:23:09.012Z,29.53
2023-04-26T08:28:14.623Z,30.36
2023-04-26T08:33:21.816Z,30.66
2023-04-26T08:38:25.571Z,31.18
2023-04-26T08:43:29.741Z,32.09
2023-04-26T08:48:37.671Z,32.58
2023-04-26T08:53:42.331Z,32.08
2023-04-26T08:58:45.987Z,31.86
2023-04-26T09:03:51.776Z,33.74
2023-04-26T09:08:56.531Z,33.44
2023-04-26T09:14:00.290Z,33.86
2023-04-26T09:19:05.651Z,35.18
2023-04-26T09:24:09.278Z,35.90
2023-04-26T09:29:15.283Z,35.91
2023-04-26T09:34:20.645Z,35.54
2023-04-26T09:39:34.932Z,36.78
2023-04-26T09:44:39.723Z,36.17
2023-04-26T09:49:48.935Z,36.61
2023-04-26T09:54:54.034Z,37.63
2023-04-26T09:59:57.744Z,38.01
2023-04-26T10:05:07.922Z,38.45
2023-04-26T10:10:13.176Z,35.79
2023-04-26T10:15:16.729Z,37.07
2023-04-26T10:20:23.747Z,37.67
2023-04-26T10:25:36.857Z,39.13
2023-04-26T10:30:58.382Z,39.00
2023-04-26T10:36:11.911Z,36.59
2023-04-26T10:41:45.741Z,36.32
2023-04-26T10:46:52.731Z,35.75
2023-04-26T10:52:14.000Z,36.96
2023-04-26T10:57:17.727Z,37.90
2023-04-26T11:02:46.579Z,37.73
2023-04-26T11:08:05.440Z,37.52
2023-04-26T11:13:08.973Z,38.01
2023-04-26T11:18:13.154Z,37.99
2023-04-26T11:23:21.616Z,38.99
2023-04-26T11:28:25.373Z,38.33
2023-04-26T11:33:29.333Z,38.08
2023-04-26T11:38:34.628Z,39.15
2023-04-26T11:43:39.459Z,39.34
2023-04-26T11:48:43.157Z,39.11
2023-04-26T11:53:48.189Z,38.74
2023-04-26T11:58:53.557Z,39.10
2023-04-26T12:03:59.354Z,38.70
2023-04-26T12:09:06.349Z,38.82
2023-04-26T12:14:11.617Z,38.78
2023-04-26T12:19:17.436Z,38.81
2023-04-26T12:24:33.413Z,37.92
2023-04-26T12:29:37.343Z,38.82
2023-04-26T12:34:41.050Z,39.65
2023-04-26T12:39:47.319Z,39.40
2023-04-26T12:44:51.593Z,38.51
2023-04-26T12:49:55.591Z,38.60
2023-04-26T12:55:01.855Z,37.67
2023-04-26T13:00:08.284Z,38.32
2023-04-26T13:05:15.089Z,37.36
2023-04-26T13:10:21.464Z,37.20
2023-04-26T13:15:27.122Z,36.89
2023-04-26T13:20:33.222Z,37.50
2023-04-26T13:25:38.648Z,37.42
2023-04-26T13:30:42.906Z,37.45
2023-04-26T13:35:48.825Z,38.04
2023-04-26T13:40:55.423Z,38.10
2023-04-26T13:45:59.816Z,38.76
2023-04-26T13:51:06.161Z,38.81
2023-04-26T13:56:11.499Z,39.57
2023-04-26T14:01:16.988Z,40.53
2023-04-26T14:06:20.594Z,39.83
2023-04-26T14:11:26.632Z,40.42
2023-04-26T14:16:30.360Z,39.61
2023-04-26T14:21:35.164Z,40.07
2023-04-26T14:26:40.306Z,40.67
2023-04-26T14:31:44.186Z,41.36
2023-04-26T14:36:47.692Z,41.11
2023-04-26T14:41:53.641Z,40.64
2023-04-26T14:46:59.070Z,40.10
2023-04-26T14:52:03.453Z,40.84
2023-04-26T14:57:11.641Z,41.22
2023-04-26T15:02:16.124Z,41.92
2023-04-26T15:07:31.517Z,42.68
2023-04-26T15:12:40.135Z,42.11
2023-04-26T15:17:43.790Z,42.42
2023-04-26T15:22:47.535Z,42.15
2023-04-26T15:27:52.827Z,41.99
2023-04-26T15:32:56.657Z,42.19
2023-04-26T15:38:00.654Z,41.89
2023-04-26T15:43:06.333Z,42.78
2023-04-26T15:48:09.739Z,42.77
2023-04-26T15:53:13.272Z,43.63
2023-04-26T15:58:18.918Z,43.01
2023-04-26T16:03:22.782Z,43.47
2023-04-26T16:08:39.932Z,42.70
2023-04-26T16:13:51.946Z,43.94
2023-04-26T16:18:55.701Z,43.67
2023-04-26T16:24:00.558Z,44.70
2023-04-26T16:29:07.693Z,44.48
2023-04-26T16:34:13.676Z,44.57
2023-04-26T16:39:17.519Z,44.61
2023-04-26T16:44:24.884Z,44.66
2023-04-26T16:49:30.396Z,45.21
2023-04-26T16:54:34.401Z,44.85
2023-04-26T16:59:42.910Z,44.98
2023-04-26T17:04:47.993Z,44.53
2023-04-26T17:09:55.434Z,45.59
2023-04-26T17:15:04.505Z,44.91
2023-04-26T17:20:11.420Z,44.81
2023-04-26T17:25:17.056Z,45.33
2023-04-26T17:30:27.252Z,44.92
2023-04-26T17:35:31.183Z,45.59
2023-04-26T17:40:35.134Z,45.08
2023-04-26T17:45:40.520Z,47.02
2023-04-26T17:50:47.116Z,46.62
2023-04-26T17:55:51.327Z,46.34
2023-04-26T18:00:57.982Z,48.00
2023-04-26T18:06:11.406Z,48.64
2023-04-26T18:11:16.070Z,48.26
2023-04-26T18:16:23.628Z,49.47
2023-04-26T18:21:29.922Z,49.08
2023-04-26T18:26:33.314Z,50.19
2023-04-26T18:31:39.172Z,50.43
2023-04-26T18:36:43.381Z,51.64
2023-04-26T18:41:54.736Z,51.35
2023-04-26T18:47:02.202Z,52.10
2023-04-26T18:52:09.007Z,52.68
2023-04-26T18:57:15.886Z,52.93
2023-04-26T19:02:25.887Z,53.91
2023-04-26T19:07:29.702Z,54.43
2023-04-26T19:12:36.123Z,54.83
2023-04-26T19:17:43.121Z,54.92
2023-04-26T19:22:48.337Z,55.38
2023-04-26T19:28:12.492Z,56.62
2023-04-26T19:33:18.256Z,56.23
2023-04-26T19:38:22.333Z,57.00
2023-04-26T19:43:27.270Z,57.43
2023-04-26T19:48:33.109Z,57.99
2023-04-26T19:53:36.994Z,57.71
2023-04-26T19:58:43.420Z,58.61
2023-04-26T20:03:49.256Z,59.43
2023-04-26T20:08:52.868Z,59.61
2023-04-26T20:13:56.506Z,60.27
2023-04-26T20:19:04.064Z,62.16
2023-04-26T20:24:08.561Z,61.44
2023-04-26T20:29:14.840Z,61.96
2023-04-26T20:34:19.750Z,62.67
2023-04-26T20:39:23.678Z,62.42
2023-04-26T20:44:27.090Z,63.03
2023-04-26T20:49:31.805Z,63.60
2023-04-26T20:54:37.624Z,63.54
2023-04-26T20:59:41.580Z,63.78
2023-04-26T21:04:47.080Z,64.22
2023-04-26T21:09:50.657Z,64.60
2023-04-26T21:14:54.439Z,64.60
2023-04-26T21:20:00.005Z,65.51
2023-04-26T21:25:04.118Z,65.46
2023-04-26T21:30:09.401Z,65.52
2023-04-26T21:35:14.542Z,65.20
2023-04-26T21:40:18.498Z,64.67
2023-04-26T21:45:22.538Z,65.25
2023-04-26T21:50:30.197Z,65.14
2023-04-26T21:55:37.979Z,65.05
2023-04-26T22:00:46.102Z,65.17
2023-04-26T22:05:57.250Z,66.30
2023-04-26T22:11:02.841Z,65.93
2023-04-26T22:16:07.076Z,65.74
2023-04-26T22:21:12.210Z,66.03
2023-04-26T22:26:17.122Z,66.37
2023-04-26T22:31:20.715Z,66.41
2023-04-26T22:36:25.830Z,66.60
2023-04-26T22:41:29.679Z,66.53
2023-04-26T22:46:33.426Z,67.16
2023-04-26T22:51:38.361Z,67.06
2023-04-26T22:56:41.973Z,67.65
2023-04-26T23:01:46.441Z,67.93
2023-04-26T23:06:51.544Z,67.69
2023-04-26T23:11:54.932Z,67.98
2023-04-26T23:17:00.324Z,68.42
2023-04-26T23:22:05.258Z,68.81
2023-04-26T23:27:08.967Z,68.82
2023-04-26T23:32:12.667Z,69.12
2023-04-26T23:37:18.086Z,69.48
2023-04-26T23:42:23.843Z,69.37
2023-04-26T23:47:28.782Z,69.62
2023-04-26T23:52:35.190Z,70.61
2023-04-26T23:57:38.904Z,70.52
